Rechercher aéroport 
image banner adimage banner adimage banner ad
image banner ad

CL66 - Camp 2

Situé à La Canada, United States

ICAO - CL66, IATA -

Données fournies par Airmate  

Information générale

Coordonnées: N34°11'50" W118°10'26"
Élévation : 1120 feet MSL.
Variation magnétique : 14° East
Voir autres Aéroports à California

Données opérationnelles

Special qualification required
Heure actuelle UTC:
Heure actuelle locale:
Météo à : KBUR - Bob Hope ( 17 km )
METAR: KBUR 270453Z 14005KT 10SM CLR 19/16 A2998 RMK AO2 SLP141 T01940156 $
TAF: KBUR 262342Z 2700/2724 17008KT P6SM BKN120 FM270300 14006KT P6SM BKN150 FM271000 VRB03KT P6SM SCT150 FM272000 17008KT P6SM SKC
Voir NOTAMs / SUP AIP / TFR affectant cet aéroport [VIEW]
Fréquences de communication: [VIEW]

Pistes:

Coordonnées de l'aéroport

Adresse: La Canada United States

Vue satellite de CL66